Time;durP1;ratioP1;P1;durP2;ratioP2;P2;SDS_P1;SDS_P2;PMS_P1;PMS_P2;Temp;Humidity;BMP_temperature;BMP_pressure;BME280_temperature;BME280_humidity;BME280_pressure;Samples;Min_cycle;Max_cycle;Signal;HPM_P1;HPM_P2
2022/07/12 00:06:36;;;;;;;;;2.00;2.00;;;;;27.57;38.00;101445.50;4763785;29;45786;-81
2022/07/12 00:12:10;;;;;;;;;3.00;2.75;;;;;27.60;38.12;101448.63;4766884;29;45742;-83
2022/07/12 00:14:35;;;;;;;;;1.25;1.25;;;;;27.63;37.86;101456.31;4766842;29;45810;-80
2022/07/12 00:17:02;;;;;;;;;2.25;2.00;;;;;27.64;38.18;101455.25;4766545;29;45719;-79
2022/07/12 00:19:27;;;;;;;;;2.75;2.75;;;;;27.64;38.07;101462.53;4767184;29;46196;-81
2022/07/12 00:21:53;;;;;;;;;3.75;3.25;;;;;27.60;38.02;101459.38;4766716;29;45600;-80
2022/07/12 00:24:18;;;;;;;;;2.00;2.00;;;;;27.57;38.36;101457.09;4767058;29;45538;-82
2022/07/12 00:26:44;;;;;;;;;2.25;2.00;;;;;27.58;38.15;101463.31;4766766;29;45757;-82
2022/07/12 00:29:12;;;;;;;;;2.75;2.75;;;;;27.47;39.01;101446.69;4751632;29;47320;-81
2022/07/12 00:31:37;;;;;;;;;2.00;1.75;;;;;27.51;38.70;101455.22;4767035;29;45879;-81
2022/07/12 00:34:03;;;;;;;;;3.00;2.00;;;;;27.58;38.74;101471.41;4772214;29;45781;-80
2022/07/12 00:36:28;;;;;;;;;2.00;2.00;;;;;27.47;39.42;101453.91;4784771;29;45744;-81
2022/07/12 00:38:54;;;;;;;;;2.00;2.00;;;;;27.44;38.80;101452.44;4784678;29;45709;-81
2022/07/12 00:41:19;;;;;;;;;2.25;2.00;;;;;27.46;38.88;101450.41;4829541;28;45771;-78
2022/07/12 00:43:44;;;;;;;;;3.00;2.00;;;;;27.49;38.86;101459.91;4917134;28;45731;-81
2022/07/12 00:49:41;;;;;;;;;3.25;3.25;;;;;27.37;39.10;101443.50;4914730;28;45836;-82
2022/07/12 00:52:06;;;;;;;;;3.00;3.00;;;;;27.33;38.63;101439.53;4917147;28;45649;-81
2022/07/12 00:54:34;;;;;;;;;2.25;2.25;;;;;27.41;39.03;101452.84;4917203;28;45714;-81
2022/07/12 00:57:00;;;;;;;;;5.00;4.00;;;;;27.30;39.35;101436.44;4916820;28;45641;-81
2022/07/12 00:59:45;;;;;;;;;3.00;3.00;;;;;27.30;39.26;101436.44;4916830;28;45754;-82
2022/07/12 01:02:11;;;;;;;;;3.25;3.00;;;;;27.18;39.60;101425.38;4916139;28;45789;-81
2022/07/12 01:04:37;;;;;;;;;2.00;2.00;;;;;27.23;39.76;101436.38;4917011;28;45726;-80
2022/07/12 01:07:04;;;;;;;;;3.50;3.50;;;;;27.24;39.44;101451.50;4899169;28;48287;-81
2022/07/12 01:09:29;;;;;;;;;3.00;3.00;;;;;27.19;39.89;101448.56;4916621;28;45513;-81
2022/07/12 01:12:12;;;;;;;;;4.00;4.00;;;;;27.05;39.63;101430.66;4916477;28;45715;-81
2022/07/12 01:14:46;;;;;;;;;3.00;3.00;;;;;27.07;39.87;101442.91;4916700;28;45711;-82
2022/07/12 01:17:13;;;;;;;;;4.00;4.00;;;;;26.99;39.92;101439.53;4916082;28;45725;-81
2022/07/12 01:19:39;;;;;;;;;5.25;4.75;;;;;26.98;40.50;101445.94;4916656;28;45663;-79
2022/07/12 01:22:10;;;;;;;;;3.25;3.00;;;;;26.89;40.44;101442.56;4916333;28;45619;-81
2022/07/12 01:24:38;;;;;;;;;4.00;4.00;;;;;26.91;40.20;101448.56;4899217;28;45568;-82
2022/07/12 01:27:05;;;;;;;;;2.00;2.00;;;;;26.85;40.37;101448.50;4916335;28;45541;-81
2022/07/12 01:29:31;;;;;;;;;4.75;4.25;;;;;26.91;40.23;101455.81;4916377;28;45636;-79
2022/07/12 01:32:24;;;;;;;;;3.75;3.75;;;;;26.85;40.34;101445.78;4916280;28;45704;-81
2022/07/12 01:34:45;;;;;;;;;2.00;2.00;;;;;26.87;39.99;101449.13;4916444;28;46049;-81
2022/07/12 01:37:14;;;;;;;;;2.75;2.75;;;;;26.80;39.96;101429.41;4919472;28;46357;-81
2022/07/12 01:39:39;;;;;;;;;3.75;3.00;;;;;26.77;40.06;101416.38;4919702;28;46282;-81
2022/07/12 01:42:05;;;;;;;;;4.00;3.00;;;;;26.83;40.53;101434.41;4902048;28;45691;-79
2022/07/12 01:44:32;;;;;;;;;6.50;6.50;;;;;26.82;40.35;101430.06;4919556;28;45628;-81
2022/07/12 01:46:58;;;;;;;;;3.25;3.25;;;;;26.80;40.39;101429.41;4919245;28;45607;-82
2022/07/12 01:49:23;;;;;;;;;3.00;2.75;;;;;26.78;40.63;101423.38;4919247;28;46478;-79
2022/07/12 01:51:49;;;;;;;;;5.00;4.25;;;;;26.78;40.60;101429.59;4919315;28;46026;-81
2022/07/12 01:54:14;;;;;;;;;3.00;3.00;;;;;26.74;40.76;101434.53;4919606;28;45599;-80
2022/07/12 01:56:40;;;;;;;;;3.00;3.00;;;;;26.71;40.46;101431.44;4919242;28;46439;-81
2022/07/12 01:59:07;;;;;;;;;4.00;3.00;;;;;26.70;40.72;101441.34;4917783;28;46873;-81
2022/07/12 02:04:54;;;;;;;;;3.00;3.00;;;;;26.59;40.92;101432.97;4918961;28;45620;-80
2022/07/12 02:07:20;;;;;;;;;3.00;3.00;;;;;26.58;40.99;101429.44;4919115;28;45553;-80
2022/07/12 02:09:46;;;;;;;;;3.25;3.00;;;;;26.61;41.26;101437.09;4918973;28;45880;-78
2022/07/12 02:12:11;;;;;;;;;2.00;2.00;;;;;26.61;41.09;101439.00;4919049;28;45608;-79
2022/07/12 02:14:36;;;;;;;;;3.00;3.00;;;;;26.61;41.22;101441.69;4901835;28;45895;-79
2022/07/12 02:20:24;;;;;;;;;3.25;3.00;;;;;26.55;41.46;101445.13;4918721;28;45740;-80
2022/07/12 02:22:49;;;;;;;;;4.00;4.00;;;;;26.49;41.27;101437.84;4901361;28;45713;-80
2022/07/12 02:25:15;;;;;;;;;4.75;4.75;;;;;26.43;41.14;101428.69;4901452;28;46025;-78
2022/07/12 02:27:41;;;;;;;;;4.00;4.00;;;;;26.49;41.12;101440.53;4918774;28;45513;-79
2022/07/12 02:30:08;;;;;;;;;4.00;3.00;;;;;26.46;41.47;101430.97;4918853;28;45603;-81
2022/07/12 02:32:34;;;;;;;;;3.00;3.00;;;;;26.45;41.53;101433.88;4918765;28;45640;-80
2022/07/12 02:34:59;;;;;;;;;3.00;3.00;;;;;26.42;41.13;101435.09;4918863;28;45799;-80
2022/07/12 02:37:25;;;;;;;;;3.25;3.25;;;;;26.39;41.39;101440.84;4901059;28;47368;-80
2022/07/12 02:39:51;;;;;;;;;3.75;3.00;;;;;26.38;41.37;101436.50;4918592;28;45592;-81
2022/07/12 02:42:16;;;;;;;;;3.00;3.00;;;;;26.29;41.63;101426.88;4918504;28;45740;-81
2022/07/12 02:44:42;;;;;;;;;4.00;4.00;;;;;26.35;41.73;101433.34;4918640;28;45749;-80
2022/07/12 02:50:28;;;;;;;;;3.00;3.00;;;;;26.29;41.61;101437.63;4916974;28;45763;-80
2022/07/12 02:52:54;;;;;;;;;4.25;4.00;;;;;26.29;41.81;101443.84;4918596;28;45796;-81
2022/07/12 02:55:19;;;;;;;;;2.00;2.00;;;;;26.26;41.82;101443.41;4918475;28;45533;-81
2022/07/12 02:57:45;;;;;;;;;4.00;4.00;;;;;26.27;41.83;101448.59;4918222;28;46342;-81
2022/07/12 03:06:35;;;;;;;;;3.00;3.00;;;;;26.20;41.75;101453.03;4918207;28;45690;-81
2022/07/12 03:09:00;;;;;;;;;3.00;3.00;;;;;26.20;41.79;101462.94;4918210;28;46389;-81
2022/07/12 03:11:25;;;;;;;;;4.75;4.00;;;;;26.10;41.83;101449.81;4918171;28;45712;-81
2022/07/12 03:13:51;;;;;;;;;6.75;4.50;;;;;26.16;42.09;101459.81;4918204;28;45667;-82
2022/07/12 03:16:16;;;;;;;;;4.00;3.00;;;;;26.10;42.08;101449.81;4918153;28;45520;-81
2022/07/12 03:18:43;;;;;;;;;4.00;3.75;;;;;26.12;42.06;101450.47;4917989;28;46342;-82
2022/07/12 03:21:09;;;;;;;;;4.00;4.00;;;;;26.11;41.97;101450.66;4918098;28;45816;-80
2022/07/12 03:24:10;;;;;;;;;4.00;4.00;;;;;26.15;41.98;101452.75;4900889;28;45659;-81
2022/07/12 03:26:35;;;;;;;;;3.75;3.25;;;;;26.00;42.04;101430.50;4900884;28;45588;-82
2022/07/12 03:29:01;;;;;;;;;3.00;3.00;;;;;26.04;42.01;101436.31;4900369;28;47782;-81
2022/07/12 03:31:26;;;;;;;;;3.00;3.00;;;;;26.13;42.39;101449.41;4917830;28;46003;-81
2022/07/12 03:33:52;;;;;;;;;4.00;4.00;;;;;26.06;42.43;101445.03;4917971;28;45611;-82
2022/07/12 03:36:17;;;;;;;;;5.00;5.00;;;;;26.09;41.99;101455.38;4918434;28;45756;-82
2022/07/12 03:38:51;;;;;;;;;5.00;4.00;;;;;26.10;42.35;101457.03;4917964;28;45626;-81
2022/07/12 03:41:16;;;;;;;;;6.50;6.25;;;;;26.00;42.39;101446.59;4878912;29;47779;-81
2022/07/12 03:43:42;;;;;;;;;6.00;4.75;;;;;26.04;42.21;101457.78;4877921;29;45676;-82
2022/07/12 03:46:07;;;;;;;;;4.00;4.00;;;;;26.01;42.28;101452.81;4878251;29;45733;-83
2022/07/12 03:48:32;;;;;;;;;5.75;5.00;;;;;26.02;42.37;101459.84;4879523;29;45612;-80
2022/07/12 03:50:58;;;;;;;;;5.25;4.50;;;;;25.98;42.56;101450.50;4877993;29;46639;-82
2022/07/12 03:53:24;;;;;;;;;6.00;5.25;;;;;25.95;42.29;101458.94;4878453;29;45780;-79
2022/07/12 03:55:49;;;;;;;;;3.25;3.25;;;;;25.98;42.69;101469.28;4878589;29;45715;-80
2022/07/12 03:58:15;;;;;;;;;4.00;4.00;;;;;25.92;42.57;101463.66;4877480;29;46368;-80
2022/07/12 04:00:42;;;;;;;;;4.00;4.00;;;;;25.91;42.82;101470.03;4877398;29;48278;-78
2022/07/12 04:06:29;;;;;;;;;5.00;4.00;;;;;25.86;42.43;101468.94;4893519;29;45672;-78
2022/07/12 04:08:56;;;;;;;;;4.25;4.00;;;;;25.81;42.92;101474.88;4897989;29;45604;-79
2022/07/12 04:11:21;;;;;;;;;4.00;4.00;;;;;25.76;42.53;101469.22;4898265;29;46545;-79
2022/07/12 04:13:46;;;;;;;;;4.00;4.00;;;;;25.79;42.67;101471.56;4898298;29;45550;-78
2022/07/12 04:16:12;;;;;;;;;3.50;3.50;;;;;25.74;42.49;101475.81;4898386;29;45547;-80
2022/07/12 04:18:38;;;;;;;;;4.00;4.00;;;;;25.79;43.04;101486.84;4898345;29;45643;-80
2022/07/12 04:21:04;;;;;;;;;4.25;4.00;;;;;25.73;42.79;101484.91;4898089;29;45928;-78
2022/07/12 04:23:29;;;;;;;;;6.25;5.00;;;;;25.70;42.76;101480.72;4896582;29;45817;-79
2022/07/12 04:25:54;;;;;;;;;5.00;5.00;;;;;25.68;42.23;101473.88;4898352;29;45503;-80
2022/07/12 04:28:20;;;;;;;;;6.00;5.00;;;;;25.69;42.75;101480.94;4897898;29;45538;-78
2022/07/12 04:30:46;;;;;;;;;4.75;4.00;;;;;25.68;42.70;101490.00;4896495;29;46030;-78
2022/07/12 04:36:34;;;;;;;;;4.00;4.00;;;;;25.63;43.16;101487.03;4898033;29;45716;-79
2022/07/12 04:38:59;;;;;;;;;3.00;3.00;;;;;25.63;42.92;101500.47;4898035;29;45590;-80
2022/07/12 04:41:24;;;;;;;;;4.75;4.00;;;;;25.60;42.86;101492.75;4898073;29;46289;-80
2022/07/12 04:43:50;;;;;;;;;5.25;5.00;;;;;25.54;43.27;101480.88;4898158;29;45838;-80
2022/07/12 04:46:15;;;;;;;;;3.75;3.75;;;;;25.42;42.97;101472.47;4898113;29;45792;-79
2022/07/12 04:48:41;;;;;;;;;4.25;4.25;;;;;25.52;43.20;101492.84;4897841;29;45627;-78
2022/07/12 04:51:06;;;;;;;;;5.00;5.00;;;;;25.39;43.21;101477.38;4912577;28;46689;-79
2022/07/12 04:53:32;;;;;;;;;3.25;3.25;;;;;25.38;43.26;101475.69;4899503;28;45799;-80
2022/07/12 04:55:57;;;;;;;;;4.50;4.25;;;;;25.39;43.60;101490.78;4916951;28;45557;-81
2022/07/12 04:58:23;;;;;;;;;3.50;3.50;;;;;25.42;43.52;101493.13;4916608;28;46579;-80
2022/07/12 05:00:49;;;;;;;;;6.00;5.00;;;;;25.44;43.14;101501.78;4916738;28;46352;-79
2022/07/12 05:06:37;;;;;;;;;4.75;4.50;;;;;25.43;43.54;101505.50;4916944;28;45712;-78
2022/07/12 05:09:02;;;;;;;;;3.50;3.50;;;;;25.43;43.41;101509.00;4916332;28;45774;-80
2022/07/12 05:11:27;;;;;;;;;6.00;5.00;;;;;25.34;43.50;101494.03;4919054;28;45762;-79
2022/07/12 05:13:53;;;;;;;;;5.50;5.00;;;;;25.41;43.34;101503.00;4920129;28;45485;-79
2022/07/12 05:16:19;;;;;;;;;6.00;6.00;;;;;25.47;44.20;101517.53;4920208;28;45772;-80
2022/07/12 05:22:06;;;;;;;;;4.25;4.25;;;;;25.43;43.55;101514.38;4919712;28;45952;-80
2022/07/12 05:24:31;;;;;;;;;6.75;5.75;;;;;25.47;43.52;101528.28;4920081;28;45764;-79
2022/07/12 05:26:57;;;;;;;;;6.00;6.00;;;;;25.41;43.52;101513.75;4919823;28;45710;-80
2022/07/12 05:29:22;;;;;;;;;4.50;4.50;;;;;25.41;43.80;101512.91;4919850;28;45678;-81
2022/07/12 05:31:48;;;;;;;;;5.00;4.75;;;;;25.49;43.49;101529.75;4902089;28;47914;-81
2022/07/12 05:34:13;;;;;;;;;5.75;5.50;;;;;25.49;43.69;101529.75;4920157;28;45598;-80
2022/07/12 05:36:39;;;;;;;;;8.00;8.00;;;;;25.50;43.58;101534.09;4924101;28;45528;-79
2022/07/12 05:39:05;;;;;;;;;6.00;5.25;;;;;25.49;43.59;101536.97;4923108;28;45577;-81
2022/07/12 05:41:31;;;;;;;;;8.50;7.00;;;;;25.41;43.77;101526.31;4924205;28;45542;-81
2022/07/12 05:43:56;;;;;;;;;7.00;6.00;;;;;25.39;43.75;101539.09;4921965;28;45479;-80
2022/07/12 05:46:21;;;;;;;;;6.50;6.50;;;;;25.39;43.88;101528.34;4920358;28;45719;-80
2022/07/12 05:54:53;;;;;;;;;7.00;7.00;;;;;25.42;43.84;101544.94;4919311;28;45702;-80
2022/07/12 05:57:34;;;;;;;;;8.25;8.00;;;;;25.31;44.07;101533.81;4919417;28;45536;-80
2022/07/12 06:00:00;;;;;;;;;9.00;9.00;;;;;25.38;44.13;101545.47;4919284;28;45756;-80
2022/07/12 06:02:25;;;;;;;;;7.00;7.00;;;;;25.41;43.96;101548.63;4918843;28;45847;-81
2022/07/12 06:04:50;;;;;;;;;9.50;9.25;;;;;25.40;43.80;101552.31;4919083;28;45603;-81
2022/07/12 06:07:16;;;;;;;;;11.75;10.00;;;;;25.40;43.98;101555.00;4919202;28;45545;-79
2022/07/12 06:09:41;;;;;;;;;11.25;9.00;;;;;25.44;43.74;101560.84;4918583;28;45641;-82
2022/07/12 06:12:52;;;;;;;;;10.00;9.00;;;;;25.44;43.79;101559.00;4918695;28;46187;-81
2022/07/12 06:15:45;;;;;;;;;9.50;8.75;;;;;25.31;43.76;101533.81;4902243;28;45597;-79
2022/07/12 06:18:10;;;;;;;;;8.50;7.75;;;;;25.32;43.95;101540.81;4919326;28;45830;-80
2022/07/12 06:20:35;;;;;;;;;8.50;8.00;;;;;25.38;43.82;101548.16;4918997;28;45650;-77
2022/07/12 06:23:01;;;;;;;;;6.75;6.75;;;;;25.44;43.83;101561.66;4901379;28;47827;-80
2022/07/12 06:25:26;;;;;;;;;8.50;6.75;;;;;25.36;43.76;101545.66;4919289;28;45721;-80
2022/07/12 06:27:51;;;;;;;;;8.00;8.00;;;;;25.48;44.39;101572.88;4919239;28;45474;-79
2022/07/12 06:30:18;;;;;;;;;8.50;8.00;;;;;25.48;44.03;101570.19;4918944;28;45571;-80
2022/07/12 06:32:47;;;;;;;;;8.00;7.00;;;;;25.42;44.11;101558.34;4918590;28;45833;-81
2022/07/12 06:35:14;;;;;;;;;5.00;3.75;;;;;25.41;44.05;101550.47;4918954;28;45847;-80
2022/07/12 06:37:39;;;;;;;;;7.50;6.75;;;;;25.50;43.82;101560.94;4919053;28;45482;-81
2022/07/12 06:40:06;;;;;;;;;6.75;6.75;;;;;25.49;44.03;101563.81;4918363;28;45614;-82
2022/07/12 06:45:24;;;;;;;;;8.25;8.00;;;;;25.47;44.01;101552.44;4878001;29;45846;-80
2022/07/12 06:50:47;;;;;;;;;9.00;7.25;;;;;25.41;44.08;101542.44;4877034;29;46753;-79
2022/07/12 06:53:13;;;;;;;;;11.00;10.00;;;;;25.55;43.69;101565.75;4877373;29;45768;-80
2022/07/12 06:55:38;;;;;;;;;8.00;8.00;;;;;25.57;43.82;101562.94;4878044;29;45746;-81
2022/07/12 06:58:04;;;;;;;;;10.00;9.00;;;;;25.57;44.06;101569.13;4862734;29;45984;-82
2022/07/12 07:00:29;;;;;;;;;7.50;6.75;;;;;25.55;43.62;101565.75;4879370;29;46401;-85
2022/07/12 07:02:55;;;;;;;;;8.00;7.00;;;;;25.61;43.65;101585.69;4879484;29;45692;-86
2022/07/12 07:05:20;;;;;;;;;7.00;6.00;;;;;25.60;44.08;101567.91;4879611;29;45663;-86
2022/07/12 07:07:45;;;;;;;;;13.50;13.25;;;;;25.52;43.87;101563.44;4879616;29;45621;-82
2022/07/12 07:10:11;;;;;;;;;11.50;11.50;;;;;25.61;44.06;101577.66;4879837;29;45538;-84
2022/07/12 07:12:36;;;;;;;;;9.75;8.50;;;;;25.57;44.07;101570.97;4879627;29;45707;-83
2022/07/12 07:15:40;;;;;;;;;9.00;9.00;;;;;25.57;43.60;101570.97;4879268;29;45721;-81
2022/07/12 07:18:07;;;;;;;;;5.00;5.00;;;;;25.64;43.51;101566.56;4879217;29;45595;-81
2022/07/12 07:20:32;;;;;;;;;8.00;8.00;;;;;25.62;43.97;101565.91;4879739;29;46380;-81
2022/07/12 07:22:58;;;;;;;;;8.75;8.00;;;;;25.67;43.70;101574.22;4910794;28;46338;-82
2022/07/12 07:25:23;;;;;;;;;8.25;8.25;;;;;25.71;43.70;101576.34;4905139;28;45762;-85
2022/07/12 07:27:48;;;;;;;;;9.75;8.50;;;;;25.67;43.86;101567.00;4903942;28;45835;-82
2022/07/12 07:33:00;;;;;;;;;9.75;8.25;;;;;25.72;43.83;101575.34;4918436;28;45933;-84
2022/07/12 07:35:26;;;;;;;;;7.50;7.25;;;;;25.72;43.75;101566.44;4919028;28;45511;-82
2022/07/12 07:38:41;;;;;;;;;9.75;9.00;;;;;25.72;43.11;101569.13;4922146;28;45643;-81
2022/07/12 07:41:06;;;;;;;;;7.25;6.00;;;;;25.78;43.63;101585.34;4852899;29;45688;-80
2022/07/12 07:43:31;;;;;;;;;8.00;7.00;;;;;25.78;43.48;101573.78;4847981;29;45780;-80
2022/07/12 07:45:57;;;;;;;;;8.00;7.75;;;;;25.83;43.25;101585.63;4844874;29;45728;-80
2022/07/12 07:48:22;;;;;;;;;9.25;8.00;;;;;25.88;43.58;101583.22;4840981;29;45827;-80
2022/07/12 07:50:48;;;;;;;;;8.75;8.75;;;;;25.83;43.90;101566.84;4840738;29;46608;-79
2022/07/12 07:53:14;;;;;;;;;10.00;9.25;;;;;25.92;43.81;101589.88;4840783;29;46368;-78
2022/07/12 07:55:39;;;;;;;;;9.50;8.00;;;;;25.87;43.67;101575.34;4841433;29;45688;-82
2022/07/12 07:58:05;;;;;;;;;11.00;9.00;;;;;25.94;43.67;101580.81;4841059;29;45594;-82
2022/07/12 08:00:30;;;;;;;;;9.50;8.00;;;;;25.91;43.73;101576.66;4841356;29;45717;-83
2022/07/12 08:02:56;;;;;;;;;8.75;7.50;;;;;25.94;43.44;101578.97;4841097;29;45895;-81
2022/07/12 08:08:43;;;;;;;;;7.75;7.25;;;;;26.11;43.24;101603.78;4841319;29;45691;-78
2022/07/12 08:11:09;;;;;;;;;8.25;8.00;;;;;26.13;43.37;101602.56;4828560;29;46975;-82
2022/07/12 08:13:34;;;;;;;;;8.00;7.00;;;;;26.13;43.08;101591.81;4844468;29;46386;-81
2022/07/12 08:16:00;;;;;;;;;8.00;7.25;;;;;26.18;43.64;101596.66;4844079;29;45888;-79
2022/07/12 08:18:26;;;;;;;;;9.00;7.50;;;;;26.20;43.33;101599.97;4901443;28;45635;-79
2022/07/12 08:20:51;;;;;;;;;8.25;8.00;;;;;26.23;43.29;101605.84;4920689;28;45742;-80
2022/07/12 08:23:17;;;;;;;;;9.25;8.25;;;;;26.24;43.21;101596.75;4919826;28;46158;-79
2022/07/12 08:25:42;;;;;;;;;9.75;9.75;;;;;26.30;43.21;101605.91;4918412;28;45639;-82
2022/07/12 08:28:08;;;;;;;;;7.00;7.00;;;;;26.31;43.02;101594.16;4919856;28;45858;-81
2022/07/12 08:30:33;;;;;;;;;7.25;7.00;;;;;26.30;42.90;101587.94;4921874;28;45676;-82
2022/07/12 08:32:59;;;;;;;;;7.00;6.00;;;;;26.38;42.82;101602.31;4927451;28;45702;-88
2022/07/12 08:38:46;;;;;;;;;9.25;7.25;;;;;26.46;43.18;101589.56;4924221;28;45634;-81
2022/07/12 08:41:13;;;;;;;;;6.25;6.25;;;;;26.46;42.61;101586.06;4906168;28;48076;-80
2022/07/12 08:43:39;;;;;;;;;5.00;5.00;;;;;26.54;42.69;101591.34;4924079;28;45747;-81
2022/07/12 08:46:13;;;;;;;;;6.00;5.50;;;;;26.56;42.16;101586.59;4925626;28;45672;-81
2022/07/12 08:48:40;;;;;;;;;6.00;6.00;;;;;26.63;42.23;101595.56;4926015;28;45508;-81
2022/07/12 08:51:18;;;;;;;;;5.00;5.00;;;;;26.64;41.85;101597.22;4920265;28;45565;-81
2022/07/12 08:53:43;;;;;;;;;4.00;4.00;;;;;26.68;41.55;101595.81;4920038;28;46199;-81
2022/07/12 08:56:33;;;;;;;;;4.25;4.00;;;;;26.70;41.35;101599.16;4919937;28;45776;-81
2022/07/12 08:59:18;;;;;;;;;4.00;4.00;;;;;26.77;41.35;101605.47;4921102;28;45529;-81
2022/07/12 09:01:43;;;;;;;;;4.25;4.00;;;;;26.79;41.36;101602.56;4924831;28;45671;-81
2022/07/12 09:04:10;;;;;;;;;3.50;3.25;;;;;26.83;41.08;101606.56;4926377;28;45720;-81
2022/07/12 09:06:36;;;;;;;;;3.50;3.50;;;;;26.88;41.51;101606.84;4926046;28;45644;-82
2022/07/12 09:09:01;;;;;;;;;5.50;4.75;;;;;26.93;41.03;101596.34;4926418;28;45748;-81
2022/07/12 09:11:27;;;;;;;;;4.25;4.00;;;;;26.96;40.93;101604.00;4926870;28;45570;-81
2022/07/12 09:13:54;;;;;;;;;4.50;4.50;;;;;26.97;40.83;101590.38;4924061;28;45541;-80
2022/07/12 09:16:22;;;;;;;;;4.50;4.50;;;;;27.01;40.55;101594.34;4921842;28;45709;-81
2022/07/12 09:18:48;;;;;;;;;4.00;4.00;;;;;27.12;40.60;101603.75;4904141;28;45641;-81
2022/07/12 09:21:24;;;;;;;;;4.50;4.00;;;;;27.15;40.53;101604.19;4920692;28;45868;-80
2022/07/12 09:23:58;;;;;;;;;5.00;4.00;;;;;27.15;39.98;101598.00;4921073;28;46334;-81
2022/07/12 09:26:32;;;;;;;;;4.25;4.00;;;;;27.21;39.84;101599.91;4919779;28;45998;-80
2022/07/12 09:29:09;;;;;;;;;5.00;4.00;;;;;27.18;39.46;101589.53;4919692;28;45634;-81
2022/07/12 09:31:40;;;;;;;;;3.50;3.50;;;;;27.26;39.74;101602.84;4919357;28;46698;-82
2022/07/12 09:36:57;;;;;;;;;3.00;3.00;;;;;27.33;38.67;101600.22;4919063;28;45785;-82
2022/07/12 09:39:25;;;;;;;;;6.00;5.00;;;;;27.41;38.46;101605.47;4919388;28;45854;-82
2022/07/12 09:41:53;;;;;;;;;4.00;3.50;;;;;27.41;38.09;101592.84;4918776;28;45833;-81
2022/07/12 09:44:20;;;;;;;;;3.25;3.00;;;;;27.51;38.33;101614.06;4923057;28;46098;-82
2022/07/12 09:46:47;;;;;;;;;4.50;4.50;;;;;27.55;38.24;101609.94;4924708;28;45570;-82
2022/07/12 09:49:13;;;;;;;;;4.00;4.00;;;;;27.60;38.22;101606.66;4925638;28;45490;-79
2022/07/12 09:51:42;;;;;;;;;4.00;4.00;;;;;27.61;38.09;101597.56;4922011;28;45658;-80
2022/07/12 09:54:12;;;;;;;;;4.00;4.00;;;;;27.64;37.96;101594.50;4920915;28;45974;-79
2022/07/12 09:56:42;;;;;;;;;3.50;3.00;;;;;27.65;37.77;101596.13;4924223;28;45578;-85
2022/07/12 09:59:13;;;;;;;;;3.75;3.75;;;;;27.76;37.63;101607.19;4927322;28;45959;-85
2022/07/12 10:01:38;;;;;;;;;5.00;4.25;;;;;27.74;37.68;101590.41;4911504;28;47156;-83
2022/07/12 10:04:06;;;;;;;;;4.00;4.00;;;;;27.79;37.10;101595.22;4927553;28;46949;-79
2022/07/12 10:09:54;;;;;;;;;4.00;4.00;;;;;27.97;36.46;101607.13;4927022;28;45790;-76
2022/07/12 10:12:22;;;;;;;;;5.25;4.50;;;;;28.01;36.25;101604.03;4920899;28;45554;-77
2022/07/12 10:14:55;;;;;;;;;3.25;3.00;;;;;28.01;35.61;101604.03;4903152;28;47933;-78
2022/07/12 10:17:24;;;;;;;;;3.75;3.00;;;;;28.05;35.10;101603.44;4920328;28;45580;-77
2022/07/12 10:20:14;;;;;;;;;4.75;4.00;;;;;28.13;35.85;101608.69;4919177;28;45498;-78
2022/07/12 10:22:40;;;;;;;;;5.00;4.50;;;;;28.17;35.50;101604.59;4918143;28;45927;-80
2022/07/12 10:25:25;;;;;;;;;3.00;3.00;;;;;28.21;35.94;101605.00;4918549;28;45670;-77
2022/07/12 10:27:51;;;;;;;;;4.00;4.00;;;;;28.26;35.95;101599.84;4918318;28;45743;-80
2022/07/12 10:30:19;;;;;;;;;5.00;4.00;;;;;28.30;34.91;101601.94;4918103;28;45663;-81
2022/07/12 10:32:48;;;;;;;;;4.50;4.00;;;;;28.24;35.24;101588.41;4917924;28;47050;-78
2022/07/12 10:35:16;;;;;;;;;4.00;4.00;;;;;28.35;34.90;101599.47;4918389;28;45918;-78
2022/07/12 10:38:22;;;;;;;;;5.00;5.00;;;;;28.38;34.46;101599.06;4918209;28;45760;-78
2022/07/12 10:40:49;;;;;;;;;4.00;3.50;;;;;28.42;34.46;101604.06;4917933;28;46019;-76
2022/07/12 10:43:17;;;;;;;;;3.75;3.75;;;;;28.39;34.11;101581.03;4918335;28;45874;-78
2022/07/12 10:45:51;;;;;;;;;4.25;3.00;;;;;28.48;34.04;101595.16;4918637;28;45862;-81
2022/07/12 10:48:16;;;;;;;;;4.00;3.00;;;;;28.56;33.92;101601.19;4919265;28;45729;-79
2022/07/12 10:51:12;;;;;;;;;3.50;3.50;;;;;28.62;34.57;101596.84;4918845;28;45681;-78
2022/07/12 10:53:50;;;;;;;;;4.75;4.50;;;;;28.63;34.52;101583.16;4914100;28;45860;-79
2022/07/12 10:56:21;;;;;;;;;4.00;4.00;;;;;28.64;33.92;101584.00;4898753;29;45785;-80
2022/07/12 10:59:23;;;;;;;;;5.00;5.00;;;;;28.66;33.44;101579.25;4899687;29;45670;-82
2022/07/12 11:02:00;;;;;;;;;3.25;3.25;;;;;28.65;32.10;101572.19;4912900;28;45804;-81
2022/07/12 11:04:33;;;;;;;;;4.50;4.00;;;;;28.68;31.95;101574.47;4898835;29;48025;-83
2022/07/12 11:07:02;;;;;;;;;2.50;2.50;;;;;28.75;31.97;101586.13;4913704;28;45924;-77
2022/07/12 11:09:28;;;;;;;;;2.25;2.25;;;;;28.78;31.23;101583.84;4899081;29;45804;-80
2022/07/12 11:11:54;;;;;;;;;3.25;3.25;;;;;28.85;30.77;101589.28;4899228;29;45566;-78
2022/07/12 11:14:26;;;;;;;;;4.00;3.00;;;;;28.83;30.41;101583.22;4899110;29;46676;-78
2022/07/12 11:16:52;;;;;;;;;4.50;4.00;;;;;28.91;30.48;101587.63;4899019;29;46031;-79
2022/07/12 11:19:29;;;;;;;;;2.25;2.25;;;;;29.00;29.11;101587.22;4898586;29;45830;-78
2022/07/12 11:21:57;;;;;;;;;4.00;2.25;;;;;29.03;29.76;101586.81;4898122;28;45657;-79
2022/07/12 11:24:26;;;;;;;;;3.50;3.00;;;;;29.10;29.46;101597.59;4898390;29;46366;-79
2022/07/12 11:26:52;;;;;;;;;3.00;3.00;;;;;29.07;29.73;101581.81;4898269;29;45906;-79
2022/07/12 11:29:21;;;;;;;;;5.25;4.25;;;;;29.15;29.29;101573.53;4899903;29;45650;-82
2022/07/12 11:31:47;;;;;;;;;3.25;3.25;;;;;29.25;29.94;101592.00;4899935;28;45750;-77
2022/07/12 11:34:23;;;;;;;;;6.25;6.00;;;;;29.25;30.16;101581.22;4898449;29;45824;-77
2022/07/12 11:36:54;;;;;;;;;4.25;4.25;;;;;29.42;30.39;101588.69;4897418;29;46293;-78
2022/07/12 11:39:39;;;;;;;;;5.50;5.50;;;;;29.49;30.16;101586.00;4898104;29;45650;-81
2022/07/12 11:42:06;;;;;;;;;6.50;5.00;;;;;29.50;30.05;101577.69;4898330;29;45583;-79
2022/07/12 11:44:46;;;;;;;;;4.75;4.50;;;;;29.66;30.38;101589.09;4898018;29;46823;-80
2022/07/12 11:47:12;;;;;;;;;5.50;5.50;;;;;29.63;29.83;101576.84;4897758;29;45848;-81
2022/07/12 11:49:46;;;;;;;;;5.50;4.50;;;;;29.71;29.80;101579.31;4898074;29;45644;-80
2022/07/12 11:52:16;;;;;;;;;6.50;5.00;;;;;29.69;29.82;101573.28;4900519;28;45859;-80
2022/07/12 11:54:42;;;;;;;;;9.25;7.00;;;;;29.69;29.87;101565.19;4917846;28;46667;-79
2022/07/12 11:57:09;;;;;;;;;5.25;4.75;;;;;29.79;30.13;101579.09;4916921;28;45688;-78
2022/07/12 11:59:34;;;;;;;;;5.75;4.50;;;;;29.80;29.52;101567.22;4917372;28;45797;-79
2022/07/12 12:02:08;;;;;;;;;5.75;5.25;;;;;29.82;29.60;101553.50;4917176;28;45537;-79
2022/07/12 12:04:54;;;;;;;;;5.00;5.00;;;;;29.83;29.26;101558.72;4916425;28;45927;-80
2022/07/12 12:07:22;;;;;;;;;5.00;4.00;;;;;29.86;29.51;101554.75;4916656;28;46437;-81
2022/07/12 12:10:00;;;;;;;;;4.00;4.00;;;;;29.90;29.42;101548.75;4916962;28;45623;-80
2022/07/12 12:12:25;;;;;;;;;4.50;4.00;;;;;29.90;29.11;101543.34;4918251;28;45675;-82
2022/07/12 12:14:51;;;;;;;;;5.75;5.00;;;;;29.96;29.07;101550.59;4923585;28;46506;-80
2022/07/12 12:17:17;;;;;;;;;4.25;4.00;;;;;29.92;29.24;101538.53;4923002;28;45604;-80
2022/07/12 12:19:42;;;;;;;;;4.50;4.00;;;;;29.93;29.11;101539.38;4921270;28;45701;-79
2022/07/12 12:22:27;;;;;;;;;6.25;5.75;;;;;29.95;29.28;101535.44;4918842;28;45754;-79
2022/07/12 12:25:00;;;;;;;;;7.00;5.00;;;;;30.00;28.79;101530.22;4916575;28;46005;-80
2022/07/12 12:27:26;;;;;;;;;4.75;4.00;;;;;30.10;28.62;101545.13;4916570;28;46183;-80
2022/07/12 12:29:51;;;;;;;;;2.50;2.50;;;;;30.09;28.94;101538.06;4916557;28;45679;-80
2022/07/12 12:32:20;;;;;;;;;2.75;2.75;;;;;30.18;28.79;101551.13;4899453;28;45617;-81
2022/07/12 12:35:05;;;;;;;;;5.00;4.00;;;;;30.23;28.41;101548.59;4916580;28;45671;-80
2022/07/12 12:37:30;;;;;;;;;5.00;5.00;;;;;30.24;28.18;101534.03;4916146;28;45879;-80
2022/07/12 12:39:56;;;;;;;;;1.50;0.75;;;;;30.27;27.67;101530.09;4916253;28;45780;-80